createdAt,value
2022-07-26T00:02:14.113Z,30.67
2022-07-26T00:04:43.905Z,30.59
2022-07-26T00:07:11.399Z,30.57
2022-07-26T00:09:39.048Z,30.63
2022-07-26T00:12:09.492Z,30.70
2022-07-26T00:14:39.937Z,30.72
2022-07-26T00:17:08.484Z,30.74
2022-07-26T00:19:36.081Z,30.68
2022-07-26T00:22:26.460Z,30.64
2022-07-26T00:24:56.416Z,30.65
2022-07-26T00:27:23.950Z,30.77
2022-07-26T00:29:57.435Z,30.60
2022-07-26T00:32:28.019Z,30.60
2022-07-26T00:34:58.770Z,30.63
2022-07-26T00:37:27.479Z,30.46
2022-07-26T00:39:55.701Z,30.42
2022-07-26T00:42:24.061Z,30.42
2022-07-26T00:44:53.193Z,30.48
2022-07-26T00:47:24.381Z,30.52
2022-07-26T00:49:56.834Z,30.51
2022-07-26T00:52:27.170Z,30.51
2022-07-26T00:54:56.659Z,30.56
2022-07-26T00:57:24.832Z,30.62
2022-07-26T00:59:55.732Z,30.59
2022-07-26T01:02:26.324Z,30.65
2022-07-26T01:04:57.004Z,30.56
2022-07-26T01:07:25.508Z,30.60
2022-07-26T01:09:52.990Z,30.62
2022-07-26T01:12:23.330Z,30.64
2022-07-26T01:14:53.598Z,30.57
2022-07-26T01:17:21.212Z,30.34
2022-07-26T01:19:49.725Z,30.48
2022-07-26T01:22:17.510Z,30.54
2022-07-26T01:24:47.560Z,30.51
2022-07-26T01:27:18.079Z,30.52
2022-07-26T01:29:46.013Z,30.59
2022-07-26T01:32:14.913Z,30.57
2022-07-26T01:34:48.746Z,30.45
2022-07-26T01:37:17.089Z,30.34
2022-07-26T01:39:46.095Z,30.51
2022-07-26T01:42:13.454Z,30.48
2022-07-26T01:44:40.959Z,30.48
2022-07-26T01:47:08.602Z,30.49
2022-07-26T01:49:38.813Z,30.46
2022-07-26T01:52:06.259Z,30.51
2022-07-26T01:54:33.421Z,30.55
2022-07-26T01:57:00.598Z,30.25
2022-07-26T02:02:56.309Z,30.13
2022-07-26T02:05:23.710Z,30.17
2022-07-26T02:07:53.423Z,30.31
2022-07-26T02:10:20.763Z,30.06
2022-07-26T02:12:51.771Z,30.03
2022-07-26T02:15:21.688Z,30.01
2022-07-26T02:17:51.623Z,30.18
2022-07-26T02:20:19.392Z,29.89
2022-07-26T02:22:46.633Z,30.16
2022-07-26T02:25:13.786Z,30.21
2022-07-26T02:27:40.958Z,30.20
2022-07-26T02:30:09.622Z,29.99
2022-07-26T02:32:36.903Z,29.92
2022-07-26T02:35:04.305Z,30.00
2022-07-26T02:37:31.581Z,30.00
2022-07-26T02:40:04.786Z,29.92
2022-07-26T02:42:32.018Z,29.87
2022-07-26T02:44:59.286Z,29.75
2022-07-26T02:47:26.544Z,29.80
2022-07-26T02:49:56.069Z,29.80
2022-07-26T02:52:26.157Z,29.89
2022-07-26T02:54:53.282Z,29.92
2022-07-26T02:57:23.319Z,30.07
2022-07-26T03:00:19.078Z,29.86
2022-07-26T03:02:48.069Z,29.94
2022-07-26T03:05:15.419Z,29.94
2022-07-26T03:07:42.994Z,29.84
2022-07-26T03:10:10.440Z,29.92
2022-07-26T03:12:37.690Z,29.96
2022-07-26T03:15:06.160Z,29.87
2022-07-26T03:17:33.398Z,29.86
2022-07-26T03:20:00.666Z,29.88
2022-07-26T03:22:30.941Z,29.47
2022-07-26T03:25:00.576Z,29.86
2022-07-26T03:27:28.139Z,29.84
2022-07-26T03:29:55.521Z,29.98
2022-07-26T03:32:22.783Z,29.96
2022-07-26T03:34:50.031Z,30.03
2022-07-26T03:37:17.353Z,30.03
2022-07-26T03:39:45.050Z,29.96
2022-07-26T03:42:12.391Z,30.00
2022-07-26T03:44:39.632Z,30.05
2022-07-26T03:47:06.972Z,29.95
2022-07-26T03:49:34.175Z,30.13
2022-07-26T03:52:04.759Z,30.17
2022-07-26T03:54:34.607Z,30.06
2022-07-26T03:57:04.806Z,30.15
2022-07-26T04:02:03.016Z,30.14
2022-07-26T04:04:30.360Z,30.19
2022-07-26T04:06:57.411Z,30.22
2022-07-26T04:09:30.495Z,30.13
2022-07-26T04:11:57.642Z,30.07
2022-07-26T04:14:24.793Z,29.97
2022-07-26T04:16:52.066Z,29.98
2022-07-26T04:19:19.386Z,30.02
2022-07-26T04:21:46.691Z,30.06
2022-07-26T04:24:13.910Z,29.91
2022-07-26T04:26:41.038Z,29.90
2022-07-26T04:29:08.687Z,29.98
2022-07-26T04:31:38.742Z,29.95
2022-07-26T04:34:07.199Z,29.90
2022-07-26T04:36:36.908Z,29.92
2022-07-26T04:39:04.041Z,29.82
2022-07-26T04:41:31.257Z,29.64
2022-07-26T04:43:58.507Z,29.73
2022-07-26T04:46:25.935Z,29.75
2022-07-26T04:48:54.041Z,29.74
2022-07-26T04:51:23.613Z,29.56
2022-07-26T04:53:51.135Z,29.71
2022-07-26T04:56:18.197Z,29.72
2022-07-26T04:58:47.739Z,29.40
2022-07-26T05:01:20.843Z,29.54
2022-07-26T05:03:48.169Z,29.24
2022-07-26T05:06:15.418Z,29.56
2022-07-26T05:08:43.806Z,29.49
2022-07-26T05:11:11.064Z,29.48
2022-07-26T05:13:38.643Z,29.57
2022-07-26T05:16:11.561Z,29.58
2022-07-26T05:18:49.255Z,29.58
2022-07-26T05:21:17.721Z,29.72
2022-07-26T05:23:44.992Z,29.71
2022-07-26T05:26:12.805Z,29.63
2022-07-26T05:28:42.818Z,29.78
2022-07-26T05:31:11.856Z,29.83
2022-07-26T05:33:39.131Z,29.82
2022-07-26T05:36:06.683Z,29.69
2022-07-26T05:38:34.367Z,29.52
2022-07-26T05:41:04.699Z,29.62
2022-07-26T05:43:40.742Z,29.62
2022-07-26T05:46:10.761Z,29.63
2022-07-26T05:48:49.400Z,29.64
2022-07-26T05:51:16.921Z,29.69
2022-07-26T05:53:46.606Z,29.65
2022-07-26T05:56:16.615Z,29.51
2022-07-26T05:58:45.469Z,29.48
2022-07-26T06:01:12.627Z,29.52
2022-07-26T06:03:39.906Z,29.68
2022-07-26T06:06:07.519Z,29.52
2022-07-26T06:08:37.295Z,29.44
2022-07-26T06:11:09.506Z,29.24
2022-07-26T06:13:45.391Z,29.67
2022-07-26T06:16:17.953Z,29.38
2022-07-26T06:18:53.161Z,29.55
2022-07-26T06:21:29.457Z,29.48
2022-07-26T06:26:50.503Z,29.53
2022-07-26T06:29:33.181Z,29.47
2022-07-26T06:32:00.735Z,29.31
2022-07-26T06:34:31.083Z,29.42
2022-07-26T06:37:03.089Z,29.35
2022-07-26T06:39:33.425Z,29.51
2022-07-26T06:42:07.208Z,29.32
2022-07-26T06:44:38.506Z,29.27
2022-07-26T06:47:15.196Z,29.44
2022-07-26T06:49:45.634Z,29.36
2022-07-26T06:52:15.879Z,29.56
2022-07-26T06:54:48.941Z,29.42
2022-07-26T06:57:16.430Z,29.17
2022-07-26T06:59:43.578Z,29.47
2022-07-26T07:02:14.173Z,29.44
2022-07-26T07:04:46.258Z,29.48
2022-07-26T07:07:13.706Z,29.65
2022-07-26T07:09:44.399Z,29.53
2022-07-26T07:12:11.692Z,29.44
2022-07-26T07:14:47.928Z,29.46
2022-07-26T07:17:37.839Z,29.45
2022-07-26T07:20:12.419Z,29.54
2022-07-26T07:22:47.234Z,29.65
2022-07-26T07:25:30.503Z,29.52
2022-07-26T07:28:10.593Z,29.48
2022-07-26T07:30:41.263Z,29.54
2022-07-26T07:33:22.478Z,29.79
2022-07-26T07:36:04.357Z,29.81
2022-07-26T07:38:42.882Z,29.76
2022-07-26T07:41:12.597Z,29.88
2022-07-26T07:43:46.572Z,30.09
2022-07-26T07:46:36.703Z,30.26
2022-07-26T07:49:16.024Z,30.47
2022-07-26T07:51:46.890Z,30.53
2022-07-26T07:54:18.906Z,30.75
2022-07-26T07:56:55.389Z,30.81
2022-07-26T07:59:24.576Z,31.09
2022-07-26T08:01:54.593Z,31.23
2022-07-26T08:04:24.878Z,31.25
2022-07-26T08:07:03.235Z,31.30
2022-07-26T08:09:33.845Z,31.42
2022-07-26T08:12:02.760Z,31.59
2022-07-26T08:14:33.163Z,31.66
2022-07-26T08:17:10.881Z,31.50
2022-07-26T08:19:42.225Z,31.56
2022-07-26T08:22:15.285Z,31.80
2022-07-26T08:24:46.054Z,31.76
2022-07-26T08:27:16.553Z,31.97
2022-07-26T08:29:47.022Z,32.13
2022-07-26T08:32:16.975Z,32.18
2022-07-26T08:34:47.305Z,32.41
2022-07-26T08:37:17.982Z,32.49
2022-07-26T08:39:55.678Z,32.66
2022-07-26T08:42:30.288Z,32.73
2022-07-26T08:44:57.674Z,32.84
2022-07-26T08:47:39.844Z,33.03
2022-07-26T08:50:34.586Z,33.00
2022-07-26T08:53:11.612Z,33.22
2022-07-26T08:56:05.319Z,33.06
2022-07-26T08:58:41.080Z,33.13
2022-07-26T09:01:17.650Z,33.09
2022-07-26T09:03:47.406Z,32.57
2022-07-26T09:06:28.247Z,33.20
2022-07-26T09:09:11.666Z,33.52
2022-07-26T09:11:41.808Z,33.67
2022-07-26T09:14:09.558Z,33.59
2022-07-26T09:16:40.533Z,33.84
2022-07-26T09:19:23.710Z,34.16
2022-07-26T09:21:52.127Z,34.35
2022-07-26T09:24:34.368Z,34.07
2022-07-26T09:27:04.787Z,34.36
2022-07-26T09:29:49.732Z,33.81
2022-07-26T09:32:28.851Z,33.62
2022-07-26T09:35:24.021Z,33.47
2022-07-26T09:37:58.585Z,33.44
2022-07-26T09:40:33.855Z,33.03
2022-07-26T09:43:10.998Z,33.00
2022-07-26T09:45:46.494Z,33.40
2022-07-26T09:48:14.218Z,33.06
2022-07-26T09:50:48.943Z,33.33
2022-07-26T09:53:16.580Z,33.41
2022-07-26T09:55:46.738Z,33.69
2022-07-26T09:58:15.827Z,33.80
2022-07-26T10:00:44.312Z,33.72
2022-07-26T10:03:12.846Z,33.58
2022-07-26T10:05:44.031Z,33.78
2022-07-26T10:08:21.108Z,33.62
2022-07-26T10:11:06.814Z,33.78
2022-07-26T10:13:45.166Z,33.47
2022-07-26T10:16:50.409Z,33.68
2022-07-26T10:19:51.060Z,33.55
2022-07-26T10:22:48.864Z,33.56
2022-07-26T10:25:24.051Z,33.86
2022-07-26T10:28:16.119Z,34.16
2022-07-26T10:30:49.871Z,34.56
2022-07-26T10:33:30.093Z,33.95
2022-07-26T10:36:06.002Z,33.96
2022-07-26T10:38:33.485Z,34.05
2022-07-26T10:41:09.490Z,33.39
2022-07-26T10:43:58.847Z,33.91
2022-07-26T10:46:31.280Z,34.17
2022-07-26T10:49:09.836Z,33.48
2022-07-26T10:51:46.813Z,33.32
2022-07-26T10:54:20.495Z,33.73
2022-07-26T10:56:50.506Z,33.44
2022-07-26T10:59:54.197Z,33.27
2022-07-26T11:02:32.688Z,33.30
2022-07-26T11:05:19.503Z,33.13
2022-07-26T11:08:10.990Z,33.34
2022-07-26T11:10:48.381Z,33.11
2022-07-26T11:13:24.518Z,32.97
2022-07-26T11:16:09.935Z,32.81
2022-07-26T11:18:43.877Z,32.52
2022-07-26T11:21:25.219Z,32.41
2022-07-26T11:24:05.067Z,32.58
2022-07-26T11:27:00.028Z,33.57
2022-07-26T11:29:41.127Z,33.23
2022-07-26T11:32:30.863Z,33.15
2022-07-26T11:41:03.473Z,32.71
2022-07-26T11:43:39.956Z,32.58
2022-07-26T11:46:10.474Z,32.53
2022-07-26T11:48:46.390Z,32.12
2022-07-26T11:51:36.762Z,32.09
2022-07-26T11:54:14.390Z,32.47
2022-07-26T11:57:01.693Z,32.14
2022-07-26T11:59:36.566Z,32.30
2022-07-26T12:02:06.640Z,32.59
2022-07-26T12:04:51.769Z,32.45
2022-07-26T12:07:24.080Z,31.85
2022-07-26T12:09:53.877Z,32.39
2022-07-26T12:12:40.553Z,32.62
2022-07-26T12:15:15.883Z,32.50
2022-07-26T12:18:01.684Z,32.74
2022-07-26T12:20:32.614Z,32.91
2022-07-26T12:23:11.908Z,32.40
2022-07-26T12:25:45.099Z,32.24
2022-07-26T12:28:42.428Z,33.01
2022-07-26T12:31:42.402Z,32.40
2022-07-26T12:34:23.973Z,33.16
2022-07-26T12:36:54.701Z,33.17
2022-07-26T12:39:43.861Z,32.55
2022-07-26T12:42:38.619Z,32.05
2022-07-26T12:45:25.066Z,32.10
2022-07-26T12:48:15.179Z,31.98
2022-07-26T12:54:30.434Z,31.89
2022-07-26T12:57:02.622Z,32.18
2022-07-26T12:59:32.475Z,32.21
2022-07-26T13:02:08.156Z,31.64
2022-07-26T13:04:38.691Z,31.34
2022-07-26T13:07:19.461Z,32.00
2022-07-26T13:10:22.476Z,31.85
2022-07-26T13:12:56.964Z,31.93
2022-07-26T13:15:36.688Z,32.57
2022-07-26T13:18:08.480Z,32.43
2022-07-26T13:20:56.167Z,32.47
2022-07-26T13:23:35.627Z,31.97
2022-07-26T13:26:18.550Z,32.85
2022-07-26T13:28:49.568Z,32.63
2022-07-26T13:31:19.659Z,32.43
2022-07-26T13:33:50.326Z,32.14
2022-07-26T13:36:23.396Z,32.12
2022-07-26T13:38:50.806Z,32.25
2022-07-26T13:41:21.393Z,31.80
2022-07-26T13:43:51.260Z,31.30
2022-07-26T13:46:19.313Z,31.75
2022-07-26T13:49:01.057Z,31.82
2022-07-26T13:52:01.772Z,32.17
2022-07-26T13:54:37.832Z,32.02
2022-07-26T13:57:08.439Z,31.61
2022-07-26T13:59:43.376Z,31.46
2022-07-26T14:02:14.409Z,31.69
2022-07-26T14:04:53.749Z,31.58
2022-07-26T14:07:28.537Z,31.51
2022-07-26T14:10:03.790Z,31.62
2022-07-26T14:12:42.690Z,31.70
2022-07-26T14:15:22.056Z,31.23
2022-07-26T14:17:52.948Z,31.48
2022-07-26T14:20:28.634Z,31.64
2022-07-26T14:23:00.364Z,31.93
2022-07-26T14:25:29.012Z,31.92
2022-07-26T14:28:00.724Z,31.54
2022-07-26T14:30:36.538Z,31.82
2022-07-26T14:33:19.048Z,31.45
2022-07-26T14:35:55.287Z,31.34
2022-07-26T14:38:29.522Z,30.83
2022-07-26T14:40:57.946Z,31.28
2022-07-26T14:43:33.615Z,30.55
2022-07-26T14:46:02.994Z,31.06
2022-07-26T14:48:52.195Z,31.26
2022-07-26T14:51:23.940Z,30.84
2022-07-26T14:53:59.896Z,30.65
2022-07-26T14:56:35.152Z,30.69
2022-07-26T14:59:05.752Z,30.82
2022-07-26T15:01:52.398Z,30.76
2022-07-26T15:04:26.202Z,31.10
2022-07-26T15:07:09.763Z,30.92
2022-07-26T15:09:43.191Z,31.48
2022-07-26T15:12:13.393Z,31.27
2022-07-26T15:14:59.431Z,31.08
2022-07-26T15:17:34.044Z,31.00
2022-07-26T15:20:04.010Z,30.82
2022-07-26T15:22:31.324Z,30.53
2022-07-26T15:24:58.668Z,30.34
2022-07-26T15:27:42.565Z,30.31
2022-07-26T15:30:13.837Z,30.61
2022-07-26T15:32:43.276Z,30.78
2022-07-26T15:35:14.114Z,31.08
2022-07-26T15:37:44.083Z,30.89
2022-07-26T15:40:12.661Z,30.75
2022-07-26T15:42:45.863Z,30.68
2022-07-26T15:45:13.890Z,30.47
2022-07-26T15:47:59.006Z,30.58
2022-07-26T15:50:31.465Z,30.64
2022-07-26T15:53:02.027Z,30.51
2022-07-26T15:55:35.839Z,30.59
2022-07-26T15:58:46.002Z,30.40
2022-07-26T16:01:25.281Z,30.61
2022-07-26T16:04:05.551Z,30.54
2022-07-26T16:06:48.226Z,30.77
2022-07-26T16:09:25.546Z,30.81
2022-07-26T16:15:02.144Z,30.75
2022-07-26T16:17:35.273Z,30.46
2022-07-26T16:20:14.301Z,30.58
2022-07-26T16:22:52.821Z,30.54
2022-07-26T16:25:31.443Z,30.80
2022-07-26T16:28:17.843Z,30.78
2022-07-26T16:30:58.569Z,30.13
2022-07-26T16:33:46.539Z,30.57
2022-07-26T16:36:22.368Z,30.54
2022-07-26T16:38:54.085Z,30.92
2022-07-26T16:41:32.683Z,30.72
2022-07-26T16:44:09.536Z,30.61
2022-07-26T16:46:44.506Z,30.91
2022-07-26T16:49:12.736Z,30.91
2022-07-26T16:52:02.001Z,30.87
2022-07-26T16:54:40.863Z,30.75
2022-07-26T17:00:38.401Z,30.56
2022-07-26T17:03:26.414Z,30.25
2022-07-26T17:06:06.824Z,30.28
2022-07-26T17:08:47.477Z,30.44
2022-07-26T17:11:23.594Z,30.36
2022-07-26T17:14:01.756Z,30.68
2022-07-26T17:16:53.459Z,30.79
2022-07-26T17:19:32.063Z,30.47
2022-07-26T17:22:36.098Z,30.72
2022-07-26T17:25:18.494Z,30.48
2022-07-26T17:28:05.329Z,30.58
2022-07-26T17:30:36.815Z,30.45
2022-07-26T17:33:11.695Z,30.54
2022-07-26T17:35:53.919Z,30.55
2022-07-26T17:38:35.460Z,30.51
2022-07-26T17:41:44.720Z,30.39
2022-07-26T17:44:21.120Z,30.58
2022-07-26T17:46:54.940Z,30.37
2022-07-26T17:49:31.502Z,30.22
2022-07-26T17:52:11.414Z,30.68
2022-07-26T17:54:47.137Z,30.58
2022-07-26T17:57:19.871Z,30.33
2022-07-26T18:00:06.370Z,30.23
2022-07-26T18:02:46.252Z,30.38
2022-07-26T18:05:33.009Z,30.26
2022-07-26T18:08:08.159Z,30.32
2022-07-26T18:10:38.757Z,30.42
2022-07-26T18:13:09.310Z,30.06
2022-07-26T18:15:45.208Z,30.49
2022-07-26T18:18:12.715Z,30.43
2022-07-26T18:20:49.992Z,30.31
2022-07-26T18:26:11.634Z,30.25
2022-07-26T18:28:46.204Z,30.24
2022-07-26T18:31:26.205Z,30.13
2022-07-26T18:34:01.868Z,30.39
2022-07-26T18:36:33.936Z,30.05
2022-07-26T18:39:07.515Z,30.28
2022-07-26T18:41:37.236Z,30.63
2022-07-26T18:44:05.168Z,30.65
2022-07-26T18:46:33.744Z,30.61
2022-07-26T18:49:02.396Z,30.53
2022-07-26T18:51:38.673Z,30.42
2022-07-26T18:54:09.010Z,30.50
2022-07-26T18:56:49.420Z,30.44
2022-07-26T18:59:35.821Z,30.46
2022-07-26T19:02:15.788Z,30.23
2022-07-26T19:04:54.957Z,30.25
2022-07-26T19:07:25.109Z,30.23
2022-07-26T19:09:59.967Z,30.23
2022-07-26T19:12:48.270Z,30.32
2022-07-26T19:15:17.915Z,30.21
2022-07-26T19:17:45.703Z,30.34
2022-07-26T19:20:13.717Z,30.39
2022-07-26T19:22:50.066Z,30.27
2022-07-26T19:25:18.844Z,30.62
2022-07-26T19:28:04.993Z,30.25
2022-07-26T19:30:41.643Z,30.36
2022-07-26T19:33:19.126Z,30.39
2022-07-26T19:35:49.349Z,30.19
2022-07-26T19:38:20.287Z,30.16
2022-07-26T19:40:48.173Z,30.29
2022-07-26T19:43:19.617Z,30.48
2022-07-26T19:46:02.883Z,30.40
2022-07-26T19:48:33.572Z,30.48
2022-07-26T19:51:03.956Z,30.33
2022-07-26T19:53:34.627Z,30.28
2022-07-26T19:56:09.681Z,30.41
2022-07-26T19:58:55.080Z,30.48
2022-07-26T20:01:23.567Z,30.34
2022-07-26T20:03:56.562Z,29.87
2022-07-26T20:06:24.441Z,29.87
2022-07-26T20:08:52.592Z,30.00
2022-07-26T20:11:25.307Z,29.84
2022-07-26T20:14:00.523Z,30.14
2022-07-26T20:16:33.859Z,30.04
2022-07-26T20:19:03.662Z,29.99
2022-07-26T20:21:34.824Z,29.80
2022-07-26T20:24:08.014Z,29.66
2022-07-26T20:26:45.948Z,29.68
2022-07-26T20:29:16.735Z,30.04
2022-07-26T20:31:53.431Z,30.21
2022-07-26T20:34:26.335Z,29.86
2022-07-26T20:36:56.821Z,29.90
2022-07-26T20:39:35.574Z,29.57
2022-07-26T20:42:14.853Z,29.93
2022-07-26T20:44:57.886Z,29.67
2022-07-26T20:47:31.558Z,29.73
2022-07-26T20:50:09.025Z,29.70
2022-07-26T20:52:47.821Z,29.86
2022-07-26T20:55:21.730Z,29.66
2022-07-26T20:58:01.889Z,29.61
2022-07-26T21:00:32.924Z,29.53
2022-07-26T21:03:09.550Z,29.48
2022-07-26T21:05:44.101Z,29.63
2022-07-26T21:08:16.150Z,29.71
2022-07-26T21:10:50.954Z,29.64
2022-07-26T21:13:24.582Z,29.68
2022-07-26T21:15:54.744Z,29.65
2022-07-26T21:18:34.361Z,29.53
2022-07-26T21:21:09.794Z,29.52
2022-07-26T21:23:39.592Z,29.42
2022-07-26T21:26:07.227Z,29.61
2022-07-26T21:28:47.765Z,29.59
2022-07-26T21:31:17.361Z,29.72
2022-07-26T21:33:47.855Z,29.56
2022-07-26T21:36:23.658Z,29.63
2022-07-26T21:38:53.354Z,29.73
2022-07-26T21:41:25.110Z,29.75
2022-07-26T21:43:56.429Z,29.86
2022-07-26T21:46:32.666Z,29.55
2022-07-26T21:49:06.536Z,29.46
2022-07-26T21:51:33.992Z,29.36
2022-07-26T21:54:03.666Z,29.45
2022-07-26T21:56:33.378Z,29.84
2022-07-26T21:59:03.036Z,29.71
2022-07-26T22:01:39.343Z,29.30
2022-07-26T22:04:06.818Z,29.66
2022-07-26T22:06:36.553Z,29.72
2022-07-26T22:29:58.602Z,29.22
2022-07-26T22:32:30.915Z,29.50
2022-07-26T22:35:01.543Z,29.58
2022-07-26T22:37:33.934Z,29.70
2022-07-26T22:40:04.237Z,29.73
2022-07-26T22:42:31.576Z,29.69
2022-07-26T22:44:58.730Z,29.49
2022-07-26T22:47:26.185Z,29.42
2022-07-26T22:49:54.080Z,29.39
2022-07-26T22:52:21.279Z,29.60
2022-07-26T22:54:48.348Z,29.67
2022-07-26T22:57:18.513Z,29.77
2022-07-26T22:59:45.693Z,29.72
2022-07-26T23:02:12.853Z,29.60
2022-07-26T23:04:43.028Z,29.72
2022-07-26T23:07:13.447Z,29.35
2022-07-26T23:09:43.492Z,29.49
2022-07-26T23:12:13.639Z,29.66
2022-07-26T23:14:43.988Z,29.57
2022-07-26T23:17:13.613Z,29.63
2022-07-26T23:19:41.003Z,29.63
2022-07-26T23:22:08.258Z,29.65
2022-07-26T23:24:35.600Z,29.50
2022-07-26T23:27:03.218Z,29.32
2022-07-26T23:29:30.966Z,29.56
2022-07-26T23:31:58.400Z,29.31
2022-07-26T23:34:30.645Z,29.35
2022-07-26T23:36:58.078Z,29.22
2022-07-26T23:39:27.570Z,29.43
2022-07-26T23:41:55.107Z,29.33
2022-07-26T23:44:22.344Z,29.53
2022-07-26T23:46:49.683Z,29.69
2022-07-26T23:49:17.786Z,29.53
2022-07-26T23:51:46.147Z,29.61
2022-07-26T23:54:13.405Z,29.47
2022-07-26T23:56:41.037Z,29.59
